Time;durP1;ratioP1;P1;durP2;ratioP2;P2;SDS_P1;SDS_P2;PMS_P1;PMS_P2;Temp;Humidity;BMP_temperature;BMP_pressure;BME280_temperature;BME280_humidity;BME280_pressure;Samples;Min_cycle;Max_cycle;Signal;HPM_P1;HPM_P2
2022/03/18 00:00:45;;;;;;;57.17;26.52;;;;;;;10.26;100.00;99498.38;5001211;28;20080;-56
2022/03/18 00:03:11;;;;;;;67.72;29.65;;;;;;;9.84;100.00;99499.00;4998476;28;20084;-56
2022/03/18 00:05:37;;;;;;;64.90;30.45;;;;;;;9.85;100.00;99507.66;5001011;28;20038;-53
2022/03/18 00:08:03;;;;;;;60.40;26.38;;;;;;;9.99;100.00;99510.09;5002619;28;20072;-55
2022/03/18 00:10:29;;;;;;;67.30;30.10;;;;;;;9.92;100.00;99518.88;4999119;28;20042;-53
2022/03/18 00:12:54;;;;;;;70.65;30.40;;;;;;;10.19;100.00;99512.41;5004043;28;20037;-55
2022/03/18 00:15:23;;;;;;;66.18;26.95;;;;;;;10.14;100.00;99527.25;4994117;28;20447;-56
2022/03/18 00:17:50;;;;;;;66.57;29.10;;;;;;;9.91;100.00;99518.03;4996636;28;20069;-54
2022/03/18 00:20:16;;;;;;;45.38;18.17;;;;;;;10.51;100.00;99525.00;4998461;28;20053;-55
2022/03/18 00:22:43;;;;;;;73.47;30.33;;;;;;;9.92;100.00;99522.34;5000906;28;20134;-54
2022/03/18 00:25:12;;;;;;;71.32;29.65;;;;;;;9.93;100.00;99520.63;5000937;28;20447;-55
2022/03/18 00:27:38;;;;;;;68.13;30.05;;;;;;;9.58;100.00;99530.63;4999828;28;20033;-55
2022/03/18 00:30:05;;;;;;;66.40;28.90;;;;;;;10.02;100.00;99525.69;5003016;28;20025;-54
2022/03/18 00:32:31;;;;;;;71.93;30.70;;;;;;;9.90;100.00;99525.88;5002568;28;20144;-55
2022/03/18 00:34:56;;;;;;;83.32;31.10;;;;;;;9.67;100.00;99524.44;4999517;28;20082;-54
2022/03/18 00:37:21;;;;;;;72.55;30.15;;;;;;;9.52;100.00;99535.03;4997645;28;20785;-55
2022/03/18 00:39:47;;;;;;;47.13;17.48;;;;;;;10.12;100.00;99532.47;5006017;28;20040;-55
2022/03/18 00:42:12;;;;;;;62.97;27.83;;;;;;;9.86;100.00;99534.63;5001498;28;20084;-54
2022/03/18 00:44:39;;;;;;;69.60;28.80;;;;;;;10.05;100.00;99536.06;5002412;28;20471;-53
2022/03/18 00:52:37;;;;;;;73.78;30.13;;;;;;;9.62;100.00;99534.06;5002458;28;20060;-54
2022/03/18 00:55:03;;;;;;;71.88;29.65;;;;;;;9.56;100.00;99541.94;4997167;28;20133;-55
2022/03/18 00:57:28;;;;;;;64.03;25.85;;;;;;;9.67;100.00;99534.84;5004458;28;20056;-54
2022/03/18 00:59:53;;;;;;;75.50;29.67;;;;;;;9.29;100.00;99543.13;5001830;28;20029;-55
2022/03/18 01:02:19;;;;;;;69.47;27.42;;;;;;;9.47;100.00;99547.28;5001748;28;20056;-55
2022/03/18 01:04:44;;;;;;;75.70;29.50;;;;;;;9.17;100.00;99550.19;5000504;28;20041;-55
2022/03/18 01:07:09;;;;;;;67.50;27.70;;;;;;;9.27;100.00;99548.34;5001982;28;20044;-54
2022/03/18 01:09:34;;;;;;;69.15;26.85;;;;;;;8.74;100.00;99557.53;5001283;28;20192;-55
2022/03/18 01:12:00;;;;;;;71.25;28.45;;;;;;;8.86;100.00;99557.44;5002090;28;20041;-55
2022/03/18 01:14:26;;;;;;;64.55;27.02;;;;;;;8.92;100.00;99559.13;5002136;28;20058;-54
2022/03/18 01:16:51;;;;;;;71.43;26.95;;;;;;;9.28;100.00;99557.88;5000732;28;20041;-53
2022/03/18 01:19:18;;;;;;;72.03;28.33;;;;;;;9.12;100.00;99556.34;5002247;28;20420;-55
2022/03/18 01:21:43;;;;;;;71.55;26.88;;;;;;;8.98;100.00;99559.91;4999068;28;20049;-54
2022/03/18 01:24:09;;;;;;;74.97;27.20;;;;;;;8.65;100.00;99561.94;5004242;28;20030;-55
2022/03/18 01:26:34;;;;;;;68.53;26.23;;;;;;;8.49;100.00;99568.13;5002714;28;20058;-54
2022/03/18 01:29:00;;;;;;;62.55;23.98;;;;;;;8.98;100.00;99570.31;5002259;28;20720;-55
2022/03/18 01:31:26;;;;;;;65.68;25.65;;;;;;;8.97;100.00;99567.72;5000268;28;20149;-55
2022/03/18 01:33:52;;;;;;;75.75;27.10;;;;;;;8.41;100.00;99573.34;4996500;28;20073;-53
2022/03/18 01:36:17;;;;;;;76.60;28.02;;;;;;;8.58;100.00;99560.25;5000881;28;20049;-56
2022/03/18 01:38:42;;;;;;;74.32;26.45;;;;;;;8.58;100.00;99569.81;5004359;28;20026;-54
2022/03/18 01:41:08;;;;;;;68.95;25.60;;;;;;;8.78;100.00;99572.25;5000324;28;20050;-53
2022/03/18 01:43:44;;;;;;;65.10;25.52;;;;;;;8.68;100.00;99572.31;4997453;28;20022;-54
2022/03/18 01:46:10;;;;;;;69.25;23.58;;;;;;;8.83;100.00;99579.13;4995538;28;20034;-53
2022/03/18 01:48:35;;;;;;;73.05;27.13;;;;;;;8.50;100.00;99577.66;4999148;28;20522;-56
2022/03/18 01:51:03;;;;;;;72.50;26.73;;;;;;;8.45;100.00;99584.63;5004099;28;20703;-55
2022/03/18 01:53:28;;;;;;;72.22;26.58;;;;;;;8.56;100.00;99572.41;5002736;28;20472;-55
2022/03/18 01:55:55;;;;;;;66.53;24.50;;;;;;;8.78;100.00;99580.06;5000113;28;20052;-55
2022/03/18 01:58:21;;;;;;;75.03;25.63;;;;;;;8.59;100.00;99588.00;5008647;28;20191;-55
2022/03/18 02:00:47;;;;;;;70.38;25.77;;;;;;;8.53;100.00;99587.16;5002858;28;20042;-54
2022/03/18 02:03:12;;;;;;;56.53;20.42;;;;;;;8.82;100.00;99584.34;5001806;28;20054;-55
2022/03/18 02:05:39;;;;;;;75.80;26.20;;;;;;;8.53;100.00;99582.84;5003131;28;20080;-55
2022/03/18 02:08:07;;;;;;;102.55;28.45;;;;;;;8.39;100.00;99595.06;5002433;28;20173;-54
2022/03/18 02:10:33;;;;;;;73.80;25.40;;;;;;;8.48;100.00;99601.09;5003338;28;20037;-54
2022/03/18 02:12:58;;;;;;;67.45;25.02;;;;;;;8.44;100.00;99601.13;5003799;28;20042;-53
2022/03/18 02:15:24;;;;;;;67.28;23.40;;;;;;;8.49;100.00;99601.94;4999513;28;20030;-55
2022/03/18 02:17:49;;;;;;;63.83;23.77;;;;;;;8.78;100.00;99598.25;5006011;28;20038;-53
2022/03/18 02:20:14;;;;;;;64.32;23.80;;;;;;;8.75;100.00;99600.88;5006582;28;20030;-56
2022/03/18 02:22:41;;;;;;;68.03;24.77;;;;;;;8.33;100.00;99605.50;5005437;28;20022;-54
2022/03/18 02:25:12;;;;;;;67.72;25.25;;;;;;;8.68;100.00;99613.94;5003505;28;20032;-55
2022/03/18 02:27:39;;;;;;;64.73;24.40;;;;;;;8.22;100.00;99606.41;4984343;28;20053;-53
2022/03/18 02:30:06;;;;;;;56.03;20.45;;;;;;;8.43;100.00;99602.84;4984892;28;20509;-53
2022/03/18 02:32:33;;;;;;;67.00;24.33;;;;;;;8.41;100.00;99612.34;4985767;28;20027;-54
2022/03/18 02:34:58;;;;;;;65.93;23.48;;;;;;;8.33;100.00;99614.16;4984911;28;20347;-54
2022/03/18 02:37:23;;;;;;;62.95;22.25;;;;;;;8.57;100.00;99615.75;4986484;28;20859;-53
2022/03/18 02:39:49;;;;;;;69.40;24.63;;;;;;;8.45;100.00;99610.63;4985046;28;20039;-54
2022/03/18 02:42:14;;;;;;;68.28;24.50;;;;;;;8.51;100.00;99615.81;4981137;28;20627;-54
2022/03/18 02:44:40;;;;;;;65.68;23.90;;;;;;;8.19;100.00;99614.22;4982043;28;20548;-53
2022/03/18 02:47:05;;;;;;;60.85;22.63;;;;;;;8.05;100.00;99616.91;4983753;28;20046;-53
2022/03/18 02:49:31;;;;;;;57.05;20.75;;;;;;;8.66;100.00;99620.03;4987388;28;20048;-55
2022/03/18 02:51:56;;;;;;;65.20;22.20;;;;;;;8.75;100.00;99613.88;4984966;28;20049;-53
2022/03/18 02:54:22;;;;;;;58.33;21.45;;;;;;;8.77;100.00;99625.19;4987856;28;20027;-54
2022/03/18 02:56:49;;;;;;;50.83;17.98;;;;;;;8.51;100.00;99625.34;4982337;28;20129;-55
2022/03/18 02:59:15;;;;;;;59.75;22.10;;;;;;;8.35;100.00;99621.97;4983570;28;20015;-53
2022/03/18 03:01:40;;;;;;;60.20;21.95;;;;;;;8.48;100.00;99631.44;4982430;28;20202;-54
2022/03/18 03:04:05;;;;;;;64.05;22.63;;;;;;;8.21;100.00;99633.28;4987026;28;20157;-53
2022/03/18 03:09:16;;;;;;;58.85;21.75;;;;;;;7.91;100.00;99640.34;4983686;28;20037;-54
2022/03/18 03:11:43;;;;;;;52.85;20.48;;;;;;;8.25;100.00;99639.31;4984509;28;20570;-53
2022/03/18 03:14:09;;;;;;;63.13;22.48;;;;;;;8.44;100.00;99633.19;4986142;28;20061;-54
2022/03/18 03:16:34;;;;;;;48.15;17.63;;;;;;;8.47;100.00;99643.59;4985218;28;20065;-54
2022/03/18 03:19:03;;;;;;;56.40;21.88;;;;;;;8.17;100.00;99654.97;4982690;28;20022;-53
2022/03/18 03:21:29;;;;;;;58.85;20.48;;;;;;;8.16;100.00;99655.84;4986317;28;20130;-55
2022/03/18 03:23:55;;;;;;;52.40;18.60;;;;;;;8.03;100.00;99660.25;4986825;28;20081;-54
2022/03/18 03:26:20;;;;;;;56.00;20.50;;;;;;;7.98;100.00;99662.00;4985970;28;20038;-54
2022/03/18 03:28:45;;;;;;;50.55;19.02;;;;;;;8.47;100.00;99660.91;4985160;28;20069;-53
2022/03/18 03:31:11;;;;;;;55.30;19.45;;;;;;;8.35;100.00;99666.16;4982879;28;20096;-54
2022/03/18 03:33:37;;;;;;;52.33;19.20;;;;;;;8.07;100.00;99676.69;4980083;28;20026;-53
2022/03/18 03:36:03;;;;;;;59.28;19.92;;;;;;;8.05;100.00;99678.41;4980343;28;20039;-54
2022/03/18 03:38:28;;;;;;;46.33;16.52;;;;;;;8.15;100.00;99669.72;4986870;28;20634;-57
2022/03/18 03:40:54;;;;;;;56.30;19.88;;;;;;;8.08;100.00;99673.19;4979646;28;20046;-53
2022/03/18 03:43:19;;;;;;;57.85;19.48;;;;;;;8.33;100.00;99678.31;4988270;28;20034;-53
2022/03/18 03:45:44;;;;;;;51.38;18.40;;;;;;;8.30;100.00;99679.16;4985065;28;21075;-54
2022/03/18 03:48:10;;;;;;;57.88;19.25;;;;;;;8.09;100.00;99677.53;4983482;28;20385;-53
2022/03/18 03:50:36;;;;;;;51.25;18.95;;;;;;;8.08;100.00;99687.06;4985448;28;20048;-54
2022/03/18 03:53:03;;;;;;;48.47;18.30;;;;;;;8.07;100.00;99684.50;4980957;28;20026;-54
2022/03/18 03:55:29;;;;;;;53.17;16.77;;;;;;;8.40;100.00;99692.97;4985589;28;20040;-53
2022/03/18 03:57:54;;;;;;;51.38;17.27;;;;;;;8.40;100.00;99685.19;4984439;28;20030;-54
2022/03/18 04:00:20;;;;;;;52.50;18.48;;;;;;;7.98;100.00;99702.72;4981749;28;20023;-53
2022/03/18 04:02:45;;;;;;;52.95;18.45;;;;;;;8.08;100.00;99697.44;4982356;28;20025;-57
2022/03/18 04:05:11;;;;;;;50.20;17.45;;;;;;;7.70;100.00;99702.75;4981905;28;20400;-54
2022/03/18 04:07:39;;;;;;;50.05;17.30;;;;;;;7.96;100.00;99705.31;4982418;28;20033;-54
2022/03/18 04:10:06;;;;;;;48.67;17.92;;;;;;;8.02;100.00;99701.81;4982597;28;20126;-52
2022/03/18 04:12:35;;;;;;;52.60;17.20;;;;;;;7.91;100.00;99709.66;4984490;28;20856;-54
2022/03/18 04:15:01;;;;;;;55.85;17.95;;;;;;;7.83;100.00;99712.28;4980820;28;20025;-54
2022/03/18 04:17:35;;;;;;;47.33;16.02;;;;;;;8.01;100.00;99718.28;4984359;28;20050;-54
2022/03/18 04:20:00;;;;;;;46.20;16.35;;;;;;;8.00;100.00;99726.97;4984917;28;20038;-55
2022/03/18 04:22:25;;;;;;;44.80;15.52;;;;;;;8.01;100.00;99726.06;4980231;28;20031;-54
2022/03/18 04:24:50;;;;;;;62.95;18.33;;;;;;;7.98;100.00;99724.34;4981289;28;20034;-55
2022/03/18 04:27:16;;;;;;;49.63;16.13;;;;;;;7.68;100.00;99730.47;4983616;28;20037;-53
2022/03/18 04:29:41;;;;;;;45.80;16.20;;;;;;;7.93;100.00;99733.03;4984201;28;20508;-54
2022/03/18 04:32:07;;;;;;;42.60;14.70;;;;;;;8.10;100.00;99729.53;4979298;28;20541;-55
2022/03/18 04:34:32;;;;;;;48.00;15.80;;;;;;;8.04;100.00;99736.47;4980331;28;20026;-54
2022/03/18 04:36:57;;;;;;;47.00;15.68;;;;;;;7.94;100.00;99746.03;4985635;28;20459;-55
2022/03/18 04:39:23;;;;;;;44.70;15.77;;;;;;;7.77;100.00;99748.63;4984121;28;20750;-54
2022/03/18 04:41:48;;;;;;;48.00;16.08;;;;;;;7.79;100.00;99754.69;4978261;28;20053;-55
2022/03/18 04:44:14;;;;;;;47.85;15.38;;;;;;;7.80;100.00;99753.84;4983742;28;20029;-55
2022/03/18 04:46:39;;;;;;;42.35;14.82;;;;;;;7.73;100.00;99762.50;4979037;28;20112;-55
2022/03/18 04:49:04;;;;;;;41.00;15.30;;;;;;;7.95;100.00;99759.88;4979521;28;20088;-53
2022/03/18 04:51:30;;;;;;;47.70;15.75;;;;;;;7.75;100.00;99773.75;4984721;28;20046;-54
2022/03/18 04:53:57;;;;;;;50.47;16.15;;;;;;;7.60;100.00;99764.25;4979613;28;20041;-55
2022/03/18 04:59:06;;;;;;;51.03;15.05;;;;;;;7.86;100.00;99772.00;4980290;28;20880;-54
2022/03/18 05:01:31;;;;;;;39.25;14.23;;;;;;;7.77;100.00;99774.63;4979746;28;20681;-54
2022/03/18 05:03:57;;;;;;;45.08;15.23;;;;;;;7.69;100.00;99779.81;4979405;28;20058;-54
2022/03/18 05:06:22;;;;;;;47.90;15.13;;;;;;;7.58;100.00;99783.31;4977264;28;20064;-56
2022/03/18 05:08:48;;;;;;;44.13;14.73;;;;;;;7.59;100.00;99787.63;4981892;28;20088;-54
2022/03/18 05:11:13;;;;;;;43.80;14.63;;;;;;;7.57;100.00;99790.22;4980813;28;20048;-54
2022/03/18 05:13:39;;;;;;;42.30;13.80;;;;;;;7.87;100.00;99794.53;4980550;28;20029;-55
2022/03/18 05:16:05;;;;;;;48.60;14.30;;;;;;;7.76;100.00;99793.69;4980175;28;20551;-56
2022/03/18 05:18:30;;;;;;;43.40;15.00;;;;;;;7.65;100.00;99796.28;4982837;28;20026;-54
2022/03/18 05:20:55;;;;;;;40.45;14.23;;;;;;;7.59;100.00;99792.81;4979556;28;20048;-54
2022/03/18 05:23:21;;;;;;;44.00;14.73;;;;;;;7.73;100.00;99791.94;4981701;28;20727;-54
2022/03/18 05:25:46;;;;;;;46.20;14.75;;;;;;;7.73;100.00;99799.72;4984002;28;20064;-54
2022/03/18 05:28:12;;;;;;;48.78;14.73;;;;;;;7.49;100.00;99797.16;4986335;28;20057;-54
2022/03/18 05:30:38;;;;;;;44.88;14.65;;;;;;;7.47;100.00;99799.75;4986182;28;20047;-54
2022/03/18 05:33:04;;;;;;;41.03;13.73;;;;;;;7.40;100.00;99808.38;4987825;28;20025;-55
2022/03/18 05:35:29;;;;;;;41.83;14.07;;;;;;;7.56;100.00;99808.41;4986486;28;20045;-54
2022/03/18 05:37:55;;;;;;;52.30;15.00;;;;;;;7.46;100.00;99813.59;4986757;28;20072;-55
2022/03/18 05:40:21;;;;;;;35.90;13.38;;;;;;;7.57;100.00;99812.72;4986197;28;20113;-54
2022/03/18 05:42:46;;;;;;;41.00;13.02;;;;;;;7.32;100.00;99810.13;4987068;28;20473;-54
2022/03/18 05:45:12;;;;;;;45.58;14.30;;;;;;;7.64;100.00;99822.25;4983694;28;20824;-55
2022/03/18 05:47:38;;;;;;;43.33;14.27;;;;;;;7.61;100.00;99823.13;4988927;28;20792;-54
2022/03/18 05:50:06;;;;;;;46.38;14.02;;;;;;;7.79;100.00;99829.19;4983028;28;20522;-54
2022/03/18 05:52:32;;;;;;;43.75;13.57;;;;;;;7.45;100.00;99837.81;4984508;28;20507;-53
2022/03/18 05:54:58;;;;;;;41.92;13.60;;;;;;;7.57;100.00;99830.91;4982767;28;20057;-55
2022/03/18 05:57:26;;;;;;;43.92;13.55;;;;;;;7.41;100.00;99837.84;4983200;28;20058;-54
2022/03/18 05:59:53;;;;;;;37.58;13.40;;;;;;;7.35;100.00;99836.06;4982939;28;20037;-54
2022/03/18 06:02:18;;;;;;;44.95;14.60;;;;;;;7.65;100.00;99836.97;4983130;28;20305;-55
2022/03/18 06:04:44;;;;;;;52.20;14.63;;;;;;;7.32;100.00;99844.72;4983100;28;20600;-55
2022/03/18 06:07:09;;;;;;;42.25;13.98;;;;;;;7.35;100.00;99841.25;4987889;28;20129;-54
2022/03/18 06:12:18;;;;;;;39.45;14.07;;;;;;;7.54;100.00;99852.56;4984172;28;20089;-54
2022/03/18 06:14:43;;;;;;;53.95;14.77;;;;;;;7.46;100.00;99856.84;4981987;28;20019;-52
2022/03/18 06:17:09;;;;;;;41.90;13.70;;;;;;;7.62;100.00;99852.56;4983190;28;20053;-58
2022/03/18 06:19:35;;;;;;;46.45;14.07;;;;;;;7.72;100.00;99856.91;4985923;28;20053;-54
2022/03/18 06:22:01;;;;;;;43.88;14.02;;;;;;;7.46;100.00;99865.53;4986118;28;20045;-53
2022/03/18 06:24:28;;;;;;;52.20;15.07;;;;;;;7.52;100.00;99865.53;4982892;28;20033;-53
2022/03/18 06:26:53;;;;;;;45.78;13.82;;;;;;;7.93;100.00;99866.41;4983406;28;20108;-54
2022/03/18 06:29:20;;;;;;;43.10;14.85;;;;;;;7.85;100.00;99871.63;4985321;28;20444;-53
2022/03/18 06:31:45;;;;;;;46.97;14.27;;;;;;;7.73;100.00;99869.88;4981572;28;20043;-53
2022/03/18 06:34:11;;;;;;;48.30;14.25;;;;;;;7.78;100.00;99877.69;4981704;28;20089;-54
2022/03/18 06:36:37;;;;;;;43.25;13.05;;;;;;;7.47;100.00;99882.84;4983647;28;20069;-55
2022/03/18 06:39:03;;;;;;;45.55;12.85;;;;;;;7.95;100.00;99874.22;4984602;28;20026;-54
2022/03/18 06:41:29;;;;;;;47.05;13.52;;;;;;;7.75;100.00;99882.88;4984314;28;20049;-54
2022/03/18 06:43:57;;;;;;;48.10;16.13;;;;;;;7.33;100.00;99889.72;4980040;28;20026;-55
2022/03/18 06:46:22;;;;;;;40.97;14.43;;;;;;;7.42;100.00;99899.28;4981521;28;20048;-53
2022/03/18 06:48:48;;;;;;;48.50;15.57;;;;;;;7.39;100.00;99901.84;4981552;28;20030;-55
2022/03/18 06:51:13;;;;;;;55.83;15.65;;;;;;;7.85;100.00;99889.81;4974177;28;20085;-53
2022/03/18 06:53:38;;;;;;;45.58;12.80;;;;;;;7.81;100.00;99898.47;4982168;28;20257;-54
2022/03/18 06:56:07;;;;;;;39.65;13.27;;;;;;;7.71;100.00;99901.91;4983690;28;20092;-54
2022/03/18 06:58:33;;;;;;;44.60;14.00;;;;;;;7.88;100.00;99902.81;4983046;28;20156;-54
2022/03/18 07:00:59;;;;;;;41.22;13.55;;;;;;;7.93;100.00;99904.53;4981882;28;20056;-55
2022/03/18 07:03:24;;;;;;;45.92;14.82;;;;;;;8.16;100.00;99902.81;4985401;28;20022;-54
2022/03/18 07:05:50;;;;;;;44.00;14.18;;;;;;;8.11;100.00;99907.13;4980610;28;20427;-54
2022/03/18 07:08:16;;;;;;;42.65;13.25;;;;;;;8.50;100.00;99902.78;4981437;28;20069;-53
2022/03/18 07:10:41;;;;;;;43.63;14.73;;;;;;;8.58;100.00;99902.75;4979365;28;20088;-53
2022/03/18 07:13:07;;;;;;;47.50;13.90;;;;;;;8.94;100.00;99906.13;4985869;28;20029;-55
2022/03/18 07:15:32;;;;;;;43.17;14.32;;;;;;;8.94;100.00;99908.72;4981886;28;20038;-54
2022/03/18 07:18:01;;;;;;;39.33;13.55;;;;;;;9.30;100.00;99912.03;4985192;28;20104;-54
2022/03/18 07:20:37;;;;;;;43.53;14.23;;;;;;;8.84;100.00;99906.16;4986443;28;20034;-54
2022/03/18 07:23:02;;;;;;;38.95;14.25;;;;;;;9.44;100.00;99907.59;4982876;28;20021;-55
2022/03/18 07:25:28;;;;;;;38.33;13.45;;;;;;;9.63;100.00;99910.94;4982021;28;20042;-54
2022/03/18 07:27:54;;;;;;;41.53;13.90;;;;;;;9.67;100.00;99910.09;4983873;28;20038;-53
2022/03/18 07:30:19;;;;;;;41.25;14.60;;;;;;;8.94;100.00;99922.59;4978642;28;20050;-55
2022/03/18 07:32:44;;;;;;;43.28;14.68;;;;;;;8.71;100.00;99924.41;4984918;28;20032;-54
2022/03/18 07:35:14;;;;;;;39.80;14.57;;;;;;;9.64;100.00;99928.34;4983400;28;20113;-53
2022/03/18 07:37:40;;;;;;;42.72;15.23;;;;;;;9.23;100.00;99939.84;4984875;28;20113;-53
2022/03/18 07:40:08;;;;;;;40.80;14.80;;;;;;;9.16;100.00;99932.94;4982299;28;20543;-53
2022/03/18 07:42:44;;;;;;;43.00;15.43;;;;;;;9.94;100.00;99931.59;4980450;28;20226;-55
2022/03/18 07:45:11;;;;;;;40.80;14.77;;;;;;;9.78;100.00;99936.94;4981080;28;20026;-53
2022/03/18 07:47:37;;;;;;;43.13;15.85;;;;;;;9.47;100.00;99927.59;4983773;28;20026;-55
2022/03/18 07:50:03;;;;;;;40.35;14.93;;;;;;;9.64;100.00;99938.75;4986215;28;20038;-56
2022/03/18 07:52:28;;;;;;;43.80;15.52;;;;;;;9.98;100.00;99938.50;4985013;28;20060;-55
2022/03/18 07:54:54;;;;;;;56.53;17.92;;;;;;;9.97;100.00;99947.22;4980691;28;20030;-54
2022/03/18 07:57:19;;;;;;;41.15;15.18;;;;;;;10.56;100.00;99938.03;4981687;28;20030;-53
2022/03/18 07:59:44;;;;;;;48.58;16.48;;;;;;;10.18;100.00;99954.88;4987924;28;20513;-56
2022/03/18 08:02:10;;;;;;;39.63;14.48;;;;;;;10.50;100.00;99951.16;4982177;28;20038;-55
2022/03/18 08:04:35;;;;;;;42.00;15.60;;;;;;;9.99;100.00;99958.50;4985316;28;20460;-55
2022/03/18 08:07:02;;;;;;;38.83;15.20;;;;;;;10.12;100.00;99954.91;4984044;28;20743;-54
2022/03/18 08:09:28;;;;;;;40.95;15.60;;;;;;;9.47;100.00;99969.25;4984225;28;20028;-56
2022/03/18 08:11:53;;;;;;;39.65;16.08;;;;;;;10.76;100.00;99969.16;4983219;28;20050;-54
2022/03/18 08:14:19;;;;;;;43.50;15.55;;;;;;;10.25;100.00;99965.25;4983550;28;20022;-53
2022/03/18 08:16:44;;;;;;;42.08;14.32;;;;;;;11.09;100.00;99966.22;4981656;28;20068;-53
2022/03/18 08:19:09;;;;;;;42.38;15.00;;;;;;;11.11;100.00;99972.28;4981004;28;20018;-55
2022/03/18 08:21:35;;;;;;;48.88;15.98;;;;;;;10.21;100.00;99980.91;4982827;28;20431;-52
2022/03/18 08:24:00;;;;;;;41.20;15.70;;;;;;;11.68;100.00;99964.56;4985852;28;20088;-51
2022/03/18 08:26:27;;;;;;;39.30;15.15;;;;;;;12.03;100.00;99978.03;4978429;28;20039;-53
2022/03/18 08:28:52;;;;;;;46.08;15.95;;;;;;;11.11;100.00;99990.56;4982383;28;20048;-51
2022/03/18 08:31:17;;;;;;;40.97;15.00;;;;;;;11.83;100.00;99976.53;4982883;28;20039;-53
2022/03/18 08:33:43;;;;;;;41.97;15.82;;;;;;;11.46;100.00;99987.50;4984709;28;20162;-54
2022/03/18 08:36:08;;;;;;;42.67;15.38;;;;;;;11.42;100.00;99998.03;4978854;28;20049;-55
2022/03/18 08:38:33;;;;;;;41.72;17.08;;;;;;;11.19;100.00;99996.53;4983014;28;20485;-54
2022/03/18 08:40:58;;;;;;;43.08;16.05;;;;;;;11.49;100.00;99995.31;4985643;28;20042;-55
2022/03/18 08:43:24;;;;;;;40.50;15.90;;;;;;;11.38;100.00;99992.84;4984837;28;20041;-52
2022/03/18 08:45:50;;;;;;;39.25;15.93;;;;;;;10.83;100.00;100001.31;4982205;28;20092;-55
2022/03/18 08:48:16;;;;;;;44.40;16.33;;;;;;;11.00;100.00;100009.81;4980985;28;20014;-55
2022/03/18 08:50:41;;;;;;;40.75;16.02;;;;;;;11.15;100.00;100000.06;4985106;28;20045;-55
2022/03/18 08:53:09;;;;;;;39.28;15.77;;;;;;;11.18;100.00;100006.13;4986453;28;20198;-54
2022/03/18 08:55:35;;;;;;;37.95;15.93;;;;;;;11.60;100.00;100003.03;4982661;28;20165;-55
2022/03/18 08:58:01;;;;;;;34.55;15.68;;;;;;;11.48;100.00;99997.94;4978467;28;20113;-54
2022/03/18 09:00:26;;;;;;;39.78;15.45;;;;;;;12.62;100.00;99986.66;4983578;28;20516;-54
2022/03/18 09:02:51;;;;;;;39.35;15.00;;;;;;;12.04;100.00;99991.09;4982731;28;20022;-55
2022/03/18 09:05:17;;;;;;;37.05;15.00;;;;;;;14.39;95.97;99992.56;4977692;28;20229;-54
2022/03/18 09:07:42;;;;;;;42.55;17.60;;;;;;;13.81;90.32;100002.69;4982273;28;20033;-53
2022/03/18 09:10:09;;;;;;;39.55;16.88;;;;;;;13.06;97.39;99999.81;4981556;28;20121;-54
2022/03/18 09:12:35;;;;;;;39.55;16.23;;;;;;;12.08;100.00;99998.00;4983774;28;20057;-54
2022/03/18 09:15:03;;;;;;;39.28;15.85;;;;;;;12.33;100.00;99997.59;4979320;28;20030;-56
2022/03/18 09:17:29;;;;;;;42.35;15.77;;;;;;;14.54;87.83;100001.81;4982132;28;20103;-55
2022/03/18 09:19:54;;;;;;;35.55;14.93;;;;;;;14.21;88.95;100007.03;4979360;28;20030;-56
2022/03/18 09:22:20;;;;;;;41.25;16.52;;;;;;;13.25;92.53;100005.56;4983639;28;20629;-55
2022/03/18 09:24:46;;;;;;;42.00;14.57;;;;;;;15.20;88.34;100003.59;4982092;28;20061;-55
2022/03/18 09:27:12;;;;;;;35.22;15.10;;;;;;;14.10;86.60;100011.63;4980069;28;20116;-55
2022/03/18 09:29:38;;;;;;;43.97;15.88;;;;;;;12.39;95.25;100023.69;4981345;28;20618;-56
2022/03/18 09:32:05;;;;;;;41.15;15.63;;;;;;;13.43;95.22;100020.94;4985758;28;20042;-56
2022/03/18 09:34:30;;;;;;;37.88;13.63;;;;;;;12.40;100.00;100007.09;4981092;28;20037;-55
2022/03/18 09:36:57;;;;;;;31.60;12.93;;;;;;;13.44;100.00;100017.44;4980826;28;20042;-54
2022/03/18 09:39:24;;;;;;;35.55;13.93;;;;;;;12.86;100.00;100021.16;4980894;28;20532;-56
2022/03/18 09:41:50;;;;;;;39.10;15.05;;;;;;;12.89;96.01;100024.59;4985153;28;20049;-55
2022/03/18 09:44:16;;;;;;;38.20;15.25;;;;;;;12.41;100.00;100037.63;4979970;28;20018;-55
2022/03/18 09:46:45;;;;;;;39.35;14.90;;;;;;;13.09;100.00;100033.84;4979372;28;20042;-55
2022/03/18 09:49:13;;;;;;;35.25;12.57;;;;;;;14.31;99.57;100031.28;4983434;28;20022;-55
2022/03/18 09:51:42;;;;;;;35.08;14.30;;;;;;;13.60;90.70;100035.47;4978240;28;20788;-52
2022/03/18 09:54:10;;;;;;;34.75;13.98;;;;;;;12.90;93.63;100036.81;4978871;28;20688;-54
2022/03/18 09:56:38;;;;;;;39.65;15.63;;;;;;;12.54;97.41;100027.81;4976554;28;20037;-53
2022/03/18 09:59:03;;;;;;;37.38;15.88;;;;;;;13.41;94.14;100032.38;4981151;28;20311;-53
2022/03/18 10:01:28;;;;;;;38.80;15.13;;;;;;;13.75;89.76;100034.28;4981137;28;20522;-54
2022/03/18 10:04:02;;;;;;;42.10;15.80;;;;;;;13.25;89.89;100035.28;4982272;28;20660;-52
2022/03/18 10:06:28;;;;;;;35.58;16.50;;;;;;;13.29;92.57;100041.31;4975722;28;20035;-55
2022/03/18 10:08:55;;;;;;;46.33;18.75;;;;;;;12.65;100.00;100032.88;4981105;28;20022;-55
2022/03/18 10:11:28;;;;;;;42.60;17.33;;;;;;;12.10;100.00;100040.69;4984347;28;20657;-55
2022/03/18 10:13:57;;;;;;;42.42;18.75;;;;;;;12.33;100.00;100029.00;4985382;28;20029;-54
2022/03/18 10:16:37;;;;;;;45.80;19.67;;;;;;;12.45;100.00;100034.06;4985308;28;20038;-53
2022/03/18 10:19:07;;;;;;;47.22;20.92;;;;;;;12.31;99.44;100042.16;4985327;28;20145;-54
2022/03/18 10:21:49;;;;;;;43.25;18.30;;;;;;;11.80;100.00;100044.59;4986438;28;20084;-53
2022/03/18 10:24:15;;;;;;;;;;;;;;;11.94;100.00;100052.28;4986079;28;20058;-54
2022/03/18 10:26:41;;;;;;;42.33;16.50;;;;;;;12.82;100.00;100049.16;4983883;28;19953;-54
2022/03/18 10:29:11;;;;;;;45.47;19.20;;;;;;;12.92;94.11;100050.72;4983952;28;20027;-53
2022/03/18 10:31:37;;;;;;;40.17;16.95;;;;;;;12.06;100.00;100057.34;4984129;28;20141;-54
2022/03/18 10:37:08;;;;;;;46.45;18.48;;;;;;;13.69;86.85;100054.53;4982050;28;20084;-56
2022/03/18 10:39:43;;;;;;;44.45;18.23;;;;;;;12.97;88.54;100047.16;4986671;28;20037;-55
2022/03/18 10:42:10;;;;;;;40.92;18.38;;;;;;;13.24;89.94;100057.13;4985965;28;20046;-55
2022/03/18 10:44:45;;;;;;;43.78;20.30;;;;;;;12.67;89.82;100055.53;4983218;28;20026;-52
2022/03/18 10:47:27;;;;;;;39.10;16.88;;;;;;;13.01;86.17;100052.31;4982925;28;20050;-53
2022/03/18 10:50:11;;;;;;;41.22;16.40;;;;;;;12.41;88.59;100062.94;4984383;28;20107;-54
2022/03/18 10:52:38;;;;;;;40.55;17.20;;;;;;;13.76;85.77;100054.38;4985397;28;20062;-55
2022/03/18 10:55:41;;;;;;;47.60;18.33;;;;;;;12.76;92.05;100056.28;4984851;28;20097;-54
2022/03/18 10:58:10;;;;;;;44.20;19.00;;;;;;;12.79;86.95;100056.19;5004979;28;20053;-56
2022/03/18 11:00:37;;;;;;;44.33;18.23;;;;;;;13.88;85.87;100054.13;5001059;28;20035;-54
2022/03/18 11:03:03;;;;;;;38.03;18.15;;;;;;;13.69;80.14;100058.88;4986056;28;20026;-55
2022/03/18 11:05:40;;;;;;;43.70;17.88;;;;;;;14.32;81.04;100062.75;4983940;28;20092;-54
2022/03/18 11:08:22;;;;;;;40.45;17.77;;;;;;;13.66;85.35;100061.59;4985171;28;20093;-55
2022/03/18 11:11:07;;;;;;;39.08;17.90;;;;;;;14.00;79.04;100068.72;4984054;28;20046;-53
2022/03/18 11:13:45;;;;;;;41.42;16.75;;;;;;;12.58;86.42;100074.00;4984692;28;20022;-55
2022/03/18 11:16:11;;;;;;;42.00;17.55;;;;;;;12.65;82.83;100066.91;4980865;28;20073;-55
2022/03/18 11:18:37;;;;;;;42.50;17.98;;;;;;;13.96;83.09;100062.69;4983778;28;20713;-54
2022/03/18 11:21:05;;;;;;;40.63;18.52;;;;;;;13.24;83.53;100062.38;4982570;28;20039;-52
2022/03/18 11:23:32;;;;;;;43.13;18.75;;;;;;;12.69;90.69;100063.34;4980504;28;20026;-54
2022/03/18 11:26:00;;;;;;;42.45;17.92;;;;;;;12.61;88.26;100059.97;4982210;28;20618;-55
2022/03/18 11:28:26;;;;;;;41.35;18.60;;;;;;;13.43;87.21;100060.28;4980910;28;20026;-54